createdAt,value
2023-05-05T00:00:15.982Z,1009.440000
2023-05-05T00:05:16.323Z,1009.400181
2023-05-05T00:10:15.892Z,1009.400741
2023-05-05T00:15:15.758Z,1009.381032
2023-05-05T00:20:16.294Z,1009.381237
2023-05-05T00:25:16.884Z,1009.361208
2023-05-05T00:30:15.892Z,1009.361554
2023-05-05T00:35:16.442Z,1009.384174
2023-05-05T00:40:16.289Z,1009.305974
2023-05-05T00:45:16.010Z,1009.467278
2023-05-05T00:50:16.061Z,1009.447359
2023-05-05T00:55:15.906Z,1009.386566
2023-05-05T01:00:15.772Z,1009.305604
2023-05-05T01:05:16.182Z,1009.264551
2023-05-05T01:10:20.279Z,1009.363208
2023-05-05T01:15:15.927Z,1009.363141
2023-05-05T01:20:16.034Z,1009.421861
2023-05-05T01:25:15.714Z,1009.461528
2023-05-05T01:30:15.956Z,1009.482002
2023-05-05T01:35:16.863Z,1009.422438
2023-05-05T01:40:16.918Z,1009.523091
2023-05-05T01:45:16.169Z,1009.503707
2023-05-05T01:50:16.120Z,1009.624227
2023-05-05T01:55:15.935Z,1009.604776
2023-05-05T02:00:16.222Z,1009.584878
2023-05-05T02:05:15.952Z,1009.704849
2023-05-05T02:10:16.078Z,1009.786004
2023-05-05T02:15:15.739Z,1009.787035
2023-05-05T02:20:16.240Z,1009.847360
2023-05-05T02:25:15.970Z,1009.766794
2023-05-05T02:30:16.042Z,1009.826902
2023-05-05T02:35:16.499Z,1009.907226
2023-05-05T02:40:16.099Z,1009.967742
2023-05-05T02:45:15.765Z,1010.067720
2023-05-05T02:50:15.711Z,1010.107718
2023-05-05T02:55:15.692Z,1010.107727
2023-05-05T03:00:15.897Z,1010.228631
2023-05-05T03:05:16.183Z,1010.168793
2023-05-05T03:10:16.370Z,1010.209485
2023-05-05T03:15:15.769Z,1010.149842
2023-05-05T03:20:16.242Z,1010.150203
2023-05-05T03:25:16.586Z,1010.190533
2023-05-05T03:30:15.902Z,1010.331552
2023-05-05T03:35:15.931Z,1010.391883
2023-05-05T03:40:16.012Z,1010.432653
2023-05-05T03:45:15.968Z,1010.493784
2023-05-05T03:50:16.047Z,1010.534632
2023-05-05T03:55:15.893Z,1010.696091
2023-05-05T04:00:15.842Z,1010.676301
2023-05-05T04:05:16.246Z,1010.675689
2023-05-05T04:10:16.287Z,1010.775222
2023-05-05T04:15:15.980Z,1010.773580
2023-05-05T04:20:16.934Z,1010.773468
2023-05-05T04:25:16.214Z,1010.954329
2023-05-05T04:30:16.036Z,1010.994523
2023-05-05T04:35:16.201Z,1010.974511
2023-05-05T04:40:16.489Z,1010.955058
2023-05-05T04:45:16.261Z,1010.895178
2023-05-05T04:50:16.768Z,1010.874429
2023-05-05T04:55:15.829Z,1010.875320
2023-05-05T05:00:16.414Z,1010.835726
2023-05-05T05:05:16.281Z,1010.675298
2023-05-05T05:10:16.470Z,1010.535429
2023-05-05T05:15:15.979Z,1010.435429
2023-05-05T05:20:16.036Z,1010.435610
2023-05-05T05:25:15.806Z,1010.414330
2023-05-05T05:30:17.252Z,1010.313425
2023-05-05T05:35:15.874Z,1010.353342
2023-05-05T05:40:15.727Z,1010.494221
2023-05-05T05:45:16.247Z,1010.635840
2023-05-05T05:50:16.114Z,1010.737541
2023-05-05T05:55:16.222Z,1010.777461
2023-05-05T06:00:16.053Z,1010.837932
2023-05-05T06:05:16.073Z,1010.817013
2023-05-05T06:10:27.195Z,1010.916654
2023-05-05T06:15:15.998Z,1010.917068
2023-05-05T06:20:17.270Z,1010.936804
2023-05-05T06:25:16.191Z,1010.996648
2023-05-05T06:30:16.407Z,1011.057970
2023-05-05T06:35:16.528Z,1011.058853
2023-05-05T06:40:15.751Z,1011.059245
2023-05-05T06:45:16.782Z,1011.179553
2023-05-05T06:50:15.930Z,1011.100199
2023-05-05T06:55:15.785Z,1011.021095
2023-05-05T07:00:16.690Z,1010.821403
2023-05-05T07:05:16.291Z,1010.721920
2023-05-05T07:10:17.040Z,1010.802177
2023-05-05T07:15:26.572Z,1010.922423
2023-05-05T07:20:16.582Z,1010.882790
2023-05-05T07:25:16.024Z,1010.982474
2023-05-05T07:30:18.321Z,1011.062278
2023-05-05T07:35:16.672Z,1011.002624
2023-05-05T07:40:16.340Z,1010.962411
2023-05-05T07:45:15.883Z,1010.882206
2023-05-05T07:50:16.735Z,1010.842353
2023-05-05T07:55:16.200Z,1010.842317
2023-05-05T08:00:15.958Z,1010.882195
2023-05-05T08:05:16.241Z,1010.821976
2023-05-05T08:10:15.787Z,1010.841924
2023-05-05T08:15:16.061Z,1010.862085
2023-05-05T08:20:16.333Z,1010.962633
2023-05-05T08:25:16.047Z,1010.902665
2023-05-05T08:30:16.243Z,1010.822749
2023-05-05T08:35:15.754Z,1010.782897
2023-05-05T08:40:16.101Z,1010.762642
2023-05-05T08:45:16.643Z,1010.783047
2023-05-05T08:50:15.846Z,1010.763541
2023-05-05T08:55:17.089Z,1010.783829
2023-05-05T09:00:15.931Z,1010.944123
2023-05-05T09:05:16.443Z,1010.944329
2023-05-05T09:10:16.033Z,1010.803844
2023-05-05T09:15:16.088Z,1010.824253
2023-05-05T09:20:15.990Z,1010.764092
2023-05-05T09:25:17.436Z,1010.904676
2023-05-05T09:30:15.755Z,1010.884930
2023-05-05T09:35:16.036Z,1010.784959
2023-05-05T09:40:16.815Z,1010.724894
2023-05-05T09:45:16.057Z,1010.664592
2023-05-05T09:50:16.262Z,1010.644521
2023-05-05T09:55:15.838Z,1010.644597
2023-05-05T10:00:16.307Z,1010.584362
2023-05-05T10:05:15.901Z,1010.564390
2023-05-05T10:10:16.306Z,1010.504301
2023-05-05T10:15:17.197Z,1010.504383
2023-05-05T10:20:16.186Z,1010.524411
2023-05-05T10:25:16.620Z,1010.604299
2023-05-05T10:30:15.892Z,1010.624068
2023-05-05T10:35:16.309Z,1010.583959
2023-05-05T10:40:16.013Z,1010.704165
2023-05-05T10:45:16.297Z,1010.623829
2023-05-05T10:50:16.205Z,1010.623656
2023-05-05T10:55:16.114Z,1010.603718
2023-05-05T11:00:15.862Z,1010.623916
2023-05-05T11:05:16.310Z,1010.664541
2023-05-05T11:10:16.288Z,1010.704482
2023-05-05T11:15:16.302Z,1010.844786
2023-05-05T11:20:16.552Z,1010.924988
2023-05-05T11:25:15.704Z,1010.904741
2023-05-05T11:30:16.481Z,1010.925181
2023-05-05T11:35:16.788Z,1010.945130
2023-05-05T11:40:16.637Z,1010.985572
2023-05-05T11:45:16.034Z,1011.085915
2023-05-05T11:50:15.952Z,1011.145938
2023-05-05T11:55:16.286Z,1011.105654
2023-05-05T12:00:16.524Z,1011.025142
2023-05-05T12:05:15.717Z,1011.005406
2023-05-05T12:10:16.161Z,1011.045361
2023-05-05T12:15:15.812Z,1010.944968
2023-05-05T12:20:21.256Z,1011.004778
2023-05-05T12:25:15.742Z,1010.884461
2023-05-05T12:30:16.767Z,1010.984312
2023-05-05T12:35:15.860Z,1010.984617
2023-05-05T12:40:15.998Z,1011.023857
2023-05-05T12:45:15.950Z,1011.084133
2023-05-05T12:50:16.697Z,1011.143863
2023-05-05T12:55:16.344Z,1011.204206
2023-05-05T13:00:15.855Z,1011.243916
2023-05-05T13:05:15.982Z,1011.284584
2023-05-05T13:10:16.154Z,1011.264551
2023-05-05T13:15:15.784Z,1011.264599
2023-05-05T13:20:16.141Z,1011.264455
2023-05-05T13:25:15.973Z,1011.284347
2023-05-05T13:30:16.377Z,1011.284530
2023-05-05T13:35:16.884Z,1011.284742
2023-05-05T13:40:16.479Z,1011.244547
2023-05-05T13:45:15.867Z,1011.204632
2023-05-05T13:50:16.039Z,1011.265090
2023-05-05T13:55:16.512Z,1011.264958
2023-05-05T14:00:15.990Z,1011.304805
2023-05-05T14:05:16.103Z,1011.344852
2023-05-05T14:10:16.738Z,1011.384624
2023-05-05T14:15:16.825Z,1011.324651
2023-05-05T14:20:16.061Z,1011.365156
2023-05-05T14:25:16.191Z,1011.365351
2023-05-05T14:30:16.353Z,1011.425562
2023-05-05T14:35:16.541Z,1011.485421
2023-05-05T14:40:16.179Z,1011.505382
2023-05-05T14:45:16.560Z,1011.545688
2023-05-05T14:50:16.220Z,1011.424875
2023-05-05T14:55:16.436Z,1011.404728
2023-05-05T15:00:16.932Z,1011.530340
2023-05-05T15:05:16.366Z,1011.585389
2023-05-05T15:10:16.569Z,1011.605250
2023-05-05T15:15:16.072Z,1011.665374
2023-05-05T15:20:17.200Z,1011.685461
2023-05-05T15:25:16.252Z,1011.705412
2023-05-05T15:30:17.471Z,1011.725601
2023-05-05T15:35:15.751Z,1011.805442
2023-05-05T15:40:15.750Z,1011.885711
2023-05-05T15:45:15.662Z,1011.966114
2023-05-05T15:50:15.758Z,1011.926556
2023-05-05T15:55:17.062Z,1011.925923
2023-05-05T16:00:16.282Z,1011.865457
2023-05-05T16:05:16.905Z,1011.825739
2023-05-05T16:10:16.491Z,1011.865189
2023-05-05T16:15:15.880Z,1011.925243
2023-05-05T16:20:16.626Z,1011.945318
2023-05-05T16:25:15.684Z,1011.985982
2023-05-05T16:30:16.002Z,1012.005659
2023-05-05T16:35:15.899Z,1012.085988
2023-05-05T16:40:15.760Z,1012.086127
2023-05-05T16:45:16.372Z,1012.146043
2023-05-05T16:50:15.757Z,1012.165971
2023-05-05T16:55:16.667Z,1012.145854
2023-05-05T17:00:15.872Z,1012.186355
2023-05-05T17:05:15.969Z,1012.225846
2023-05-05T17:10:15.797Z,1012.165510
2023-05-05T17:15:16.516Z,1012.186011
2023-05-05T17:20:16.660Z,1012.205966
2023-05-05T17:25:15.831Z,1012.266097
2023-05-05T17:30:15.913Z,1012.366519
2023-05-05T17:35:17.085Z,1012.426926
2023-05-05T17:40:16.266Z,1012.467103
2023-05-05T17:45:16.022Z,1012.466027
2023-05-05T17:50:16.027Z,1012.526949
2023-05-05T17:55:16.760Z,1012.525880
2023-05-05T18:00:17.300Z,1012.565730
2023-05-05T18:05:16.206Z,1012.625562
2023-05-05T18:10:15.802Z,1012.624851
2023-05-05T18:15:16.493Z,1012.625069
2023-05-05T18:20:16.811Z,1012.644676
2023-05-05T18:25:15.740Z,1012.723841
2023-05-05T18:30:17.876Z,1012.745334
2023-05-05T18:35:16.203Z,1012.825063
2023-05-05T18:40:16.590Z,1012.804827
2023-05-05T18:45:16.005Z,1012.803784
2023-05-05T18:50:16.707Z,1012.904342
2023-05-05T18:55:16.676Z,1012.864840
2023-05-05T19:00:16.160Z,1012.845009
2023-05-05T19:05:15.790Z,1012.884728
2023-05-05T19:10:16.316Z,1012.964711
2023-05-05T19:15:15.849Z,1013.044389
2023-05-05T19:20:16.174Z,1013.084835
2023-05-05T19:25:16.156Z,1013.204575
2023-05-05T19:30:16.064Z,1013.224987
2023-05-05T19:35:16.236Z,1013.285610
2023-05-05T19:40:16.039Z,1013.305574
2023-05-05T19:45:15.916Z,1013.344993
2023-05-05T19:50:15.851Z,1013.405054
2023-05-05T19:55:15.890Z,1013.424801
2023-05-05T20:00:17.056Z,1013.505077
2023-05-05T20:05:17.258Z,1013.605910
2023-05-05T20:10:15.812Z,1013.585497
2023-05-05T20:15:15.778Z,1013.706344
2023-05-05T20:20:16.461Z,1013.726207
2023-05-05T20:25:15.806Z,1013.806688
2023-05-05T20:30:15.929Z,1013.805945
2023-05-05T20:35:17.111Z,1013.805501
2023-05-05T20:40:15.998Z,1013.804898
2023-05-05T20:45:16.224Z,1013.885046
2023-05-05T20:50:16.901Z,1013.904995
2023-05-05T20:55:15.796Z,1013.865046
2023-05-05T21:00:15.911Z,1013.965644
2023-05-05T21:05:16.240Z,1014.006014
2023-05-05T21:10:16.036Z,1014.045722
2023-05-05T21:15:16.148Z,1014.064919
2023-05-05T21:20:15.906Z,1014.124293
2023-05-05T21:25:16.101Z,1014.164814
2023-05-05T21:30:16.493Z,1014.225358
2023-05-05T21:35:15.996Z,1014.323769
2023-05-05T21:40:16.248Z,1014.384023
2023-05-05T21:45:16.428Z,1014.404417
2023-05-05T21:50:16.182Z,1014.544891
2023-05-05T21:55:16.199Z,1014.505231
2023-05-05T22:00:16.234Z,1014.524130
2023-05-05T22:05:15.950Z,1014.544021
2023-05-05T22:10:17.147Z,1014.603334
2023-05-05T22:15:15.888Z,1014.524033
2023-05-05T22:20:16.137Z,1014.563631
2023-05-05T22:25:15.863Z,1014.564174
2023-05-05T22:30:17.070Z,1014.603737
2023-05-05T22:35:16.257Z,1014.703745
2023-05-05T22:40:16.316Z,1014.644151
2023-05-05T22:45:16.215Z,1014.603374
2023-05-05T22:50:15.802Z,1014.703743
2023-05-05T22:55:17.444Z,1014.704420
2023-05-05T23:00:16.259Z,1014.684185
2023-05-05T23:05:16.171Z,1014.722139
2023-05-05T23:10:16.034Z,1014.702613
2023-05-05T23:15:15.927Z,1014.702159
2023-05-05T23:20:16.123Z,1014.702349
2023-05-05T23:25:15.949Z,1014.722952
2023-05-05T23:30:16.452Z,1014.722795
2023-05-05T23:35:16.407Z,1014.802743
2023-05-05T23:40:16.237Z,1014.822395
2023-05-05T23:45:18.080Z,1014.943154
2023-05-05T23:50:15.816Z,1014.903488
2023-05-05T23:55:15.787Z,1014.903235
